createdAt,value
2019-04-01T00:00:51.008Z,1022.33
2019-04-01T00:02:00.949Z,1022.33
2019-04-01T00:03:10.896Z,1022.31
2019-04-01T00:04:20.846Z,1022.35
2019-04-01T00:05:30.544Z,1022.35
2019-04-01T00:06:40.242Z,1022.34
2019-04-01T00:07:49.676Z,1022.37
2019-04-01T00:08:59.357Z,1022.33
2019-04-01T00:10:09.374Z,1022.4
2019-04-01T00:11:18.820Z,1022.37
2019-04-01T00:12:28.758Z,1022.43
2019-04-01T00:13:38.703Z,1022.45
2019-04-01T00:14:48.469Z,1022.4
2019-04-01T00:15:58.418Z,1022.39
2019-04-01T00:17:08.363Z,1022.43
2019-04-01T00:18:17.795Z,1022.45
2019-04-01T00:19:27.736Z,1022.5
2019-04-01T00:20:37.422Z,1022.43
2019-04-01T00:21:47.366Z,1022.5
2019-04-01T00:22:57.465Z,1022.47
2019-04-01T00:24:08.329Z,1022.43
2019-04-01T00:25:18.010Z,1022.46
2019-04-01T00:26:27.559Z,1022.43
2019-04-01T00:27:37.517Z,1022.44
2019-04-01T00:28:47.449Z,1022.43
2019-04-01T00:29:57.413Z,1022.45
2019-04-01T00:31:07.355Z,1022.46
2019-04-01T00:32:16.784Z,1022.43
2019-04-01T00:33:26.474Z,1022.43
2019-04-01T00:34:36.238Z,1022.42
2019-04-01T00:35:45.921Z,1022.43
2019-04-01T00:36:55.618Z,1022.47
2019-04-01T00:38:05.066Z,1022.46
2019-04-01T00:39:14.752Z,1022.46
2019-04-01T00:40:24.506Z,1022.47
2019-04-01T00:41:34.200Z,1022.45
2019-04-01T00:42:44.150Z,1022.44
2019-04-01T00:43:54.093Z,1022.41
2019-04-01T00:45:03.777Z,1022.44
2019-04-01T00:46:13.449Z,1022.45
2019-04-01T00:47:23.399Z,1022.44
2019-04-01T00:48:33.375Z,1022.47
2019-04-01T00:49:43.422Z,1022.47
2019-04-01T00:50:53.119Z,1022.51
2019-04-01T00:52:03.053Z,1022.51
2019-04-01T00:53:12.982Z,1022.53
2019-04-01T00:54:25.636Z,1022.49
2019-04-01T00:55:35.336Z,1022.5
2019-04-01T00:56:45.275Z,1022.51
2019-04-01T00:57:54.707Z,1022.51
2019-04-01T00:59:04.155Z,1022.46
2019-04-01T01:00:13.850Z,1022.49
2019-04-01T01:01:23.796Z,1022.45
2019-04-01T01:02:33.499Z,1022.49
2019-04-01T01:03:43.476Z,1022.46
2019-04-01T01:04:52.664Z,1022.47
2019-04-01T01:06:02.609Z,1022.45
2019-04-01T01:07:12.307Z,1022.4
2019-04-01T01:08:22.250Z,1022.41
2019-04-01T01:09:32.042Z,1022.4
2019-04-01T01:10:42.079Z,1022.41
2019-04-01T01:11:51.758Z,1022.41
2019-04-01T01:13:01.708Z,1022.44
2019-04-01T01:14:11.649Z,1022.47
2019-04-01T01:15:21.342Z,1022.43
2019-04-01T01:16:31.282Z,1022.39
2019-04-01T01:17:41.230Z,1022.4
2019-04-01T01:18:50.417Z,1022.39
2019-04-01T01:20:00.511Z,1022.44
2019-04-01T01:21:10.227Z,1022.42
2019-04-01T01:22:19.924Z,1022.46
2019-04-01T01:23:29.616Z,1022.46
2019-04-01T01:24:39.558Z,1022.44
2019-04-01T01:25:49.273Z,1022.41
2019-04-01T01:26:58.952Z,1022.4
2019-04-01T01:28:08.902Z,1022.41
2019-04-01T01:29:18.856Z,1022.41
2019-04-01T01:30:28.793Z,1022.42
2019-04-01T01:31:38.491Z,1022.37
2019-04-01T01:32:48.181Z,1022.43
2019-04-01T01:33:58.112Z,1022.41
2019-04-01T01:35:08.073Z,1022.42
2019-04-01T01:36:18.010Z,1022.44
2019-04-01T01:37:27.944Z,1022.45
2019-04-01T01:38:37.895Z,1022.44
2019-04-01T01:39:47.589Z,1022.46
2019-04-01T01:40:56.775Z,1022.48
2019-04-01T01:42:06.709Z,1022.43
2019-04-01T01:43:16.644Z,1022.46
2019-04-01T01:44:26.583Z,1022.48
2019-04-01T01:45:36.287Z,1022.51
2019-04-01T01:46:45.966Z,1022.48
2019-04-01T01:47:55.910Z,1022.49
2019-04-01T01:49:05.602Z,1022.48
2019-04-01T01:50:15.295Z,1022.5
2019-04-01T01:51:24.967Z,1022.46
2019-04-01T01:52:34.652Z,1022.51
2019-04-01T01:53:44.598Z,1022.54
2019-04-01T01:54:54.296Z,1022.57
2019-04-01T01:56:04.239Z,1022.56
2019-04-01T01:57:13.979Z,1022.57
2019-04-01T01:58:23.659Z,1022.53
2019-04-01T01:59:32.838Z,1022.54
2019-04-01T02:00:42.531Z,1022.58
2019-04-01T02:01:52.477Z,1022.57
2019-04-01T02:03:02.423Z,1022.63
2019-04-01T02:04:12.110Z,1022.59
2019-04-01T02:05:21.808Z,1022.6
2019-04-01T02:06:31.503Z,1022.63
2019-04-01T02:07:41.221Z,1022.61
2019-04-01T02:08:50.935Z,1022.62
2019-04-01T02:10:00.879Z,1022.62
2019-04-01T02:11:10.841Z,1022.63
2019-04-01T02:12:20.784Z,1022.67
2019-04-01T02:13:30.723Z,1022.67
2019-04-01T02:14:40.773Z,1022.64
2019-04-01T02:15:50.454Z,1022.64
2019-04-01T02:17:00.143Z,1022.64
2019-04-01T02:18:10.085Z,1022.63
2019-04-01T02:19:19.766Z,1022.63
2019-04-01T02:20:29.447Z,1022.61
2019-04-01T02:21:38.895Z,1022.63
2019-04-01T02:22:48.327Z,1022.64
2019-04-01T02:23:58.012Z,1022.66
2019-04-01T02:25:07.697Z,1022.62
2019-04-01T02:26:17.135Z,1022.67
2019-04-01T02:27:27.066Z,1022.65
2019-04-01T02:28:37.047Z,1022.63
2019-04-01T02:29:46.492Z,1022.67
2019-04-01T02:30:56.259Z,1022.65
2019-04-01T02:32:06.264Z,1022.7
2019-04-01T02:33:16.268Z,1022.63
2019-04-01T02:34:26.213Z,1022.67
2019-04-01T02:35:36.195Z,1022.69
2019-04-01T02:36:46.029Z,1022.65
2019-04-01T02:37:55.991Z,1022.67
2019-04-01T02:39:05.725Z,1022.69
2019-04-01T02:40:15.421Z,1022.7
2019-04-01T02:41:29.576Z,1022.7
2019-04-01T02:42:39.276Z,1022.7
2019-04-01T02:43:48.756Z,1022.7
2019-04-01T02:44:58.461Z,1022.74
2019-04-01T02:46:08.530Z,1022.71
2019-04-01T02:47:18.501Z,1022.74
2019-04-01T02:48:28.460Z,1022.69
2019-04-01T02:49:38.340Z,1022.74
2019-04-01T02:50:48.339Z,1022.68
2019-04-01T02:51:58.284Z,1022.68
2019-04-01T02:53:08.242Z,1022.67
2019-04-01T02:54:18.195Z,1022.71
2019-04-01T02:55:28.165Z,1022.7
2019-04-01T02:56:38.099Z,1022.68
2019-04-01T02:57:47.810Z,1022.67
2019-04-01T02:58:57.778Z,1022.65
2019-04-01T03:00:07.294Z,1022.69
2019-04-01T03:01:16.742Z,1022.69
2019-04-01T03:02:26.825Z,1022.73
2019-04-01T03:03:36.811Z,1022.68
2019-04-01T03:04:46.763Z,1022.72
2019-04-01T03:05:56.713Z,1022.64
2019-04-01T03:07:06.452Z,1022.64
2019-04-01T03:08:16.411Z,1022.64
2019-04-01T03:09:26.368Z,1022.68
2019-04-01T03:10:36.316Z,1022.74
2019-04-01T03:11:46.282Z,1022.75
2019-04-01T03:12:56.250Z,1022.72
2019-04-01T03:14:05.976Z,1022.73
2019-04-01T03:15:15.678Z,1022.7
2019-04-01T03:16:25.484Z,1022.65
2019-04-01T03:17:35.479Z,1022.68
2019-04-01T03:18:45.492Z,1022.71
2019-04-01T03:19:55.532Z,1022.71
2019-04-01T03:21:05.835Z,1022.71
2019-04-01T03:22:15.942Z,1022.72
2019-04-01T03:23:25.925Z,1022.71
2019-04-01T03:24:35.669Z,1022.72
2019-04-01T03:25:45.168Z,1022.71
2019-04-01T03:26:55.152Z,1022.66
2019-04-01T03:28:05.084Z,1022.65
2019-04-01T03:29:15.019Z,1022.69
2019-04-01T03:30:25.122Z,1022.69
2019-04-01T03:31:34.856Z,1022.68
2019-04-01T03:32:45.546Z,1022.67
2019-04-01T03:33:55.674Z,1022.71
2019-04-01T03:35:05.674Z,1022.7
2019-04-01T03:36:15.646Z,1022.7
2019-04-01T03:37:25.369Z,1022.69
2019-04-01T03:38:35.054Z,1022.71
2019-04-01T03:39:45.021Z,1022.69
2019-04-01T03:40:54.982Z,1022.74
2019-04-01T03:42:04.691Z,1022.71
2019-04-01T03:43:14.395Z,1022.72
2019-04-01T03:44:24.124Z,1022.73
2019-04-01T03:45:34.075Z,1022.61
2019-04-01T03:46:44.005Z,1022.71
2019-04-01T03:47:53.957Z,1022.69
2019-04-01T03:49:03.899Z,1022.73
2019-04-01T03:50:14.253Z,1022.73
2019-04-01T03:51:24.204Z,1022.76
2019-04-01T03:52:33.894Z,1022.71
2019-04-01T03:53:43.608Z,1022.71
2019-04-01T03:54:53.056Z,1022.7
2019-04-01T03:56:03.324Z,1022.69
2019-04-01T03:57:13.287Z,1022.65
2019-04-01T03:58:23.251Z,1022.68
2019-04-01T03:59:33.204Z,1022.67
2019-04-01T04:00:42.928Z,1022.69
2019-04-01T04:01:52.868Z,1022.71
2019-04-01T04:03:02.340Z,1022.66
2019-04-01T04:04:12.486Z,1022.67
2019-04-01T04:05:22.443Z,1022.65
2019-04-01T04:06:31.888Z,1022.68
2019-04-01T04:07:41.814Z,1022.65
2019-04-01T04:08:51.527Z,1022.7
2019-04-01T04:10:04.993Z,1022.7
2019-04-01T04:11:14.956Z,1022.64
2019-04-01T04:12:25.045Z,1022.67
2019-04-01T04:13:34.535Z,1022.69
2019-04-01T04:14:44.246Z,1022.61
2019-04-01T04:15:58.704Z,1022.64
2019-04-01T04:17:08.667Z,1022.68
2019-04-01T04:18:18.608Z,1022.66
2019-04-01T04:19:28.557Z,1022.71
2019-04-01T04:20:38.067Z,1022.73
2019-04-01T04:21:47.829Z,1022.75
2019-04-01T04:22:57.859Z,1022.74
2019-04-01T04:24:07.859Z,1022.71
2019-04-01T04:25:17.833Z,1022.71
2019-04-01T04:26:27.774Z,1022.76
2019-04-01T04:27:37.486Z,1022.72
2019-04-01T04:28:47.443Z,1022.73
2019-04-01T04:29:56.893Z,1022.72
2019-04-01T04:31:06.869Z,1022.7
2019-04-01T04:32:16.563Z,1022.7
2019-04-01T04:33:26.508Z,1022.71
2019-04-01T04:34:36.556Z,1022.73
2019-04-01T04:35:46.616Z,1022.73
2019-04-01T04:36:56.575Z,1022.71
2019-04-01T04:38:06.555Z,1022.74
2019-04-01T04:39:16.250Z,1022.77
2019-04-01T04:40:26.194Z,1022.76
2019-04-01T04:41:35.922Z,1022.8
2019-04-01T04:42:45.889Z,1022.81
2019-04-01T04:43:55.864Z,1022.81
2019-04-01T04:45:05.815Z,1022.83
2019-04-01T04:46:15.791Z,1022.8
2019-04-01T04:47:28.820Z,1022.86
2019-04-01T04:48:38.771Z,1022.89
2019-04-01T04:49:48.732Z,1022.89
2019-04-01T04:50:58.684Z,1022.86
2019-04-01T04:52:08.369Z,1022.9
2019-04-01T04:53:18.060Z,1022.87
2019-04-01T04:54:27.756Z,1022.85
2019-04-01T04:55:37.706Z,1022.89
2019-04-01T04:56:47.374Z,1022.87
2019-04-01T04:57:57.062Z,1022.87
2019-04-01T04:59:07.013Z,1022.93
2019-04-01T05:00:16.968Z,1022.9
2019-04-01T05:01:26.687Z,1022.94
2019-04-01T05:02:36.625Z,1022.95
2019-04-01T05:03:46.589Z,1022.95
2019-04-01T05:04:56.768Z,1022.95
2019-04-01T05:06:06.475Z,1023
2019-04-01T05:07:16.422Z,1023.02
2019-04-01T05:08:26.391Z,1023.01
2019-04-01T05:09:36.328Z,1023.01
2019-04-01T05:10:46.274Z,1023.03
2019-04-01T05:11:55.962Z,1023.08
2019-04-01T05:13:05.895Z,1023.05
2019-04-01T05:14:15.594Z,1023.06
2019-04-01T05:15:25.041Z,1023.01
2019-04-01T05:16:34.978Z,1023.03
2019-04-01T05:17:44.656Z,1023.08
2019-04-01T05:18:54.597Z,1023.12
2019-04-01T05:20:04.289Z,1023.1
2019-04-01T05:21:17.085Z,1023.17
2019-04-01T05:22:27.030Z,1023.14
2019-04-01T05:23:36.711Z,1023.16
2019-04-01T05:24:46.402Z,1023.21
2019-04-01T05:25:56.100Z,1023.16
2019-04-01T05:27:06.040Z,1023.2
2019-04-01T05:28:15.978Z,1023.19
2019-04-01T05:29:25.935Z,1023.2
2019-04-01T05:30:35.871Z,1023.16
2019-04-01T05:31:45.822Z,1023.21
2019-04-01T05:32:55.506Z,1023.25
2019-04-01T05:34:05.183Z,1023.25
2019-04-01T05:35:14.624Z,1023.22
2019-04-01T05:36:24.076Z,1023.22
2019-04-01T05:37:33.512Z,1023.24
2019-04-01T05:38:43.444Z,1023.23
2019-04-01T05:39:53.132Z,1023.28
2019-04-01T05:41:03.191Z,1023.24
2019-04-01T05:42:13.156Z,1023.25
2019-04-01T05:43:23.115Z,1023.26
2019-04-01T05:44:33.069Z,1023.27
2019-04-01T05:45:42.514Z,1023.29
2019-04-01T05:46:52.491Z,1023.32
2019-04-01T05:48:02.174Z,1023.29
2019-04-01T05:49:12.129Z,1023.29
2019-04-01T05:50:21.581Z,1023.28
2019-04-01T05:51:31.269Z,1023.29
2019-04-01T05:52:40.955Z,1023.34
2019-04-01T05:53:50.645Z,1023.35
2019-04-01T05:55:00.470Z,1023.34
2019-04-01T05:56:14.093Z,1023.37
2019-04-01T05:57:24.034Z,1023.36
2019-04-01T05:58:34.010Z,1023.39
2019-04-01T05:59:43.984Z,1023.4
2019-04-01T06:00:53.703Z,1023.41
2019-04-01T06:02:03.156Z,1023.41
2019-04-01T06:03:12.886Z,1023.42
2019-04-01T06:04:22.571Z,1023.39
2019-04-01T06:05:32.521Z,1023.46
2019-04-01T06:06:42.470Z,1023.47
2019-04-01T06:07:54.093Z,1023.44
2019-04-01T06:09:03.798Z,1023.45
2019-04-01T06:10:13.740Z,1023.45
2019-04-01T06:11:23.446Z,1023.46
2019-04-01T06:12:33.129Z,1023.45
2019-04-01T06:13:42.573Z,1023.46
2019-04-01T06:14:52.523Z,1023.42
2019-04-01T06:16:02.221Z,1023.46
2019-04-01T06:17:11.780Z,1023.45
2019-04-01T06:18:21.493Z,1023.41
2019-04-01T06:19:31.464Z,1023.47
2019-04-01T06:20:41.460Z,1023.48
2019-04-01T06:21:51.193Z,1023.52
2019-04-01T06:23:01.124Z,1023.49
2019-04-01T06:24:10.820Z,1023.52
2019-04-01T06:25:20.494Z,1023.54
2019-04-01T06:26:30.465Z,1023.54
2019-04-01T06:27:40.416Z,1023.53
2019-04-01T06:28:50.188Z,1023.53
2019-04-01T06:30:00.371Z,1023.53
2019-04-01T06:31:10.357Z,1023.52
2019-04-01T06:32:19.797Z,1023.54
2019-04-01T06:33:29.226Z,1023.54
2019-04-01T06:34:52.020Z,1023.47
2019-04-01T06:36:02.019Z,1023.56
2019-04-01T06:37:11.982Z,1023.53
2019-04-01T06:38:22.030Z,1023.5
2019-04-01T06:39:31.820Z,1023.54
2019-04-01T06:40:41.755Z,1023.54
2019-04-01T06:41:51.700Z,1023.5
2019-04-01T06:43:01.661Z,1023.49
2019-04-01T06:44:11.345Z,1023.52
2019-04-01T06:45:21.047Z,1023.55
2019-04-01T06:46:30.983Z,1023.57
2019-04-01T06:47:40.938Z,1023.57
2019-04-01T06:48:50.885Z,1023.56
2019-04-01T06:50:00.825Z,1023.54
2019-04-01T06:51:10.766Z,1023.65
2019-04-01T06:52:20.345Z,1023.61
2019-04-01T06:53:30.043Z,1023.64
2019-04-01T06:54:39.778Z,1023.65
2019-04-01T06:55:49.727Z,1023.65
2019-04-01T06:56:59.163Z,1023.66
2019-04-01T06:58:11.764Z,1023.65
2019-04-01T06:59:21.829Z,1023.69
2019-04-01T07:00:32.019Z,1023.67
2019-04-01T07:01:41.942Z,1023.64
2019-04-01T07:02:51.632Z,1023.67
2019-04-01T07:04:01.587Z,1023.7
2019-04-01T07:05:12.653Z,1023.75
2019-04-01T07:06:22.531Z,1023.73
2019-04-01T07:07:32.221Z,1023.72
2019-04-01T07:08:41.953Z,1023.7
2019-04-01T07:09:51.689Z,1023.7
2019-04-01T07:11:01.177Z,1023.65
2019-04-01T07:12:11.121Z,1023.7
2019-04-01T07:13:20.819Z,1023.69
2019-04-01T07:14:30.756Z,1023.8
2019-04-01T07:15:40.698Z,1023.75
2019-04-01T07:16:50.653Z,1023.67
2019-04-01T07:18:00.605Z,1023.7
2019-04-01T07:19:10.577Z,1023.73
2019-04-01T07:20:20.284Z,1023.77
2019-04-01T07:21:29.986Z,1023.79
2019-04-01T07:22:39.958Z,1023.79
2019-04-01T07:23:49.922Z,1023.73
2019-04-01T07:24:59.621Z,1023.81
2019-04-01T07:26:09.069Z,1023.82
2019-04-01T07:27:19.018Z,1023.78
2019-04-01T07:28:28.971Z,1023.76
2019-04-01T07:29:38.932Z,1023.79
2019-04-01T07:30:48.637Z,1023.75
2019-04-01T07:31:58.632Z,1023.81
2019-04-01T07:33:08.385Z,1023.8
2019-04-01T07:34:18.095Z,1023.77
2019-04-01T07:35:27.798Z,1023.8
2019-04-01T07:36:38.006Z,1023.8
2019-04-01T07:37:47.969Z,1023.81
2019-04-01T07:38:57.873Z,1023.79
2019-04-01T07:40:07.824Z,1023.77
2019-04-01T07:41:21.463Z,1023.78
2019-04-01T07:42:31.427Z,1023.74
2019-04-01T07:43:41.393Z,1023.78
2019-04-01T07:44:51.330Z,1023.75
2019-04-01T07:46:01.278Z,1023.81
2019-04-01T07:47:13.213Z,1023.75
2019-04-01T07:48:23.194Z,1023.74
2019-04-01T07:49:33.222Z,1023.82
2019-04-01T07:50:43.041Z,1023.79
2019-04-01T07:51:52.643Z,1023.8
2019-04-01T07:53:02.592Z,1023.81
2019-04-01T07:54:12.278Z,1023.86
2019-04-01T07:55:26.165Z,1023.84
2019-04-01T07:56:36.969Z,1023.81
2019-04-01T07:57:46.676Z,1023.78
2019-04-01T07:59:00.153Z,1023.81
2019-04-01T08:00:09.843Z,1023.87
2019-04-01T08:01:19.813Z,1023.78
2019-04-01T08:02:29.533Z,1023.8
2019-04-01T08:03:41.861Z,1023.81
2019-04-01T08:04:51.999Z,1023.86
2019-04-01T08:06:01.190Z,1023.87
2019-04-01T08:07:13.283Z,1023.88
2019-04-01T08:08:23.446Z,1023.84
2019-04-01T08:09:33.147Z,1023.86
2019-04-01T08:10:43.115Z,1023.83
2019-04-01T08:11:53.074Z,1023.86
2019-04-01T08:13:02.775Z,1023.84
2019-04-01T08:14:12.745Z,1023.86
2019-04-01T08:15:22.712Z,1023.89
2019-04-01T08:16:32.425Z,1023.87
2019-04-01T08:17:42.368Z,1023.92
2019-04-01T08:18:52.493Z,1023.9
2019-04-01T08:20:02.203Z,1023.89
2019-04-01T08:21:11.949Z,1023.91
2019-04-01T08:22:21.916Z,1023.86
2019-04-01T08:23:31.870Z,1023.8
2019-04-01T08:24:41.601Z,1023.77
2019-04-01T08:25:51.667Z,1023.78
2019-04-01T08:27:01.158Z,1023.8
2019-04-01T08:28:12.635Z,1023.81
2019-04-01T08:29:30.269Z,1023.85
2019-04-01T08:30:40.452Z,1023.8
2019-04-01T08:31:50.400Z,1023.79
2019-04-01T08:33:00.088Z,1023.74
2019-04-01T08:34:10.132Z,1023.75
2019-04-01T08:35:20.084Z,1023.82
2019-04-01T08:36:29.791Z,1023.78
2019-04-01T08:37:40.369Z,1023.8
2019-04-01T08:38:50.740Z,1023.81
2019-04-01T08:40:03.104Z,1023.81
2019-04-01T08:41:12.524Z,1023.75
2019-04-01T08:42:22.487Z,1023.78
2019-04-01T08:43:32.448Z,1023.82
2019-04-01T08:44:42.135Z,1023.82
2019-04-01T08:45:51.332Z,1023.91
2019-04-01T08:47:01.021Z,1023.8
2019-04-01T08:48:10.734Z,1023.82
2019-04-01T08:49:20.671Z,1023.82
2019-04-01T08:50:30.625Z,1023.74
2019-04-01T08:51:40.609Z,1023.73
2019-04-01T08:52:50.327Z,1023.79
2019-04-01T08:54:00.485Z,1023.77
2019-04-01T08:55:10.551Z,1023.81
2019-04-01T08:56:20.539Z,1023.79
2019-04-01T08:57:30.517Z,1023.72
2019-04-01T08:58:40.462Z,1023.72
2019-04-01T08:59:50.417Z,1023.7
2019-04-01T09:01:03.928Z,1023.7
2019-04-01T09:02:17.942Z,1023.69
2019-04-01T09:03:28.504Z,1023.66
2019-04-01T09:04:37.957Z,1023.72
2019-04-01T09:05:47.688Z,1023.68
2019-04-01T09:06:58.211Z,1023.68
2019-04-01T09:08:08.156Z,1023.67
2019-04-01T09:09:18.129Z,1023.69
2019-04-01T09:10:27.847Z,1023.73
2019-04-01T09:11:38.504Z,1023.75
2019-04-01T09:12:48.615Z,1023.71
2019-04-01T09:13:58.566Z,1023.77
2019-04-01T09:15:08.389Z,1023.66
2019-04-01T09:16:18.119Z,1023.6
2019-04-01T09:17:27.822Z,1023.62
2019-04-01T09:18:40.878Z,1023.68
2019-04-01T09:19:50.903Z,1023.67
2019-04-01T09:21:00.889Z,1023.61
2019-04-01T09:22:10.603Z,1023.6
2019-04-01T09:23:20.542Z,1023.57
2019-04-01T09:24:30.545Z,1023.52
2019-04-01T09:25:40.507Z,1023.6
2019-04-01T09:26:50.211Z,1023.58
2019-04-01T09:28:00.169Z,1023.56
2019-04-01T09:29:10.111Z,1023.56
2019-04-01T09:30:20.070Z,1023.56
2019-04-01T09:31:29.772Z,1023.57
2019-04-01T09:32:39.819Z,1023.55
2019-04-01T09:33:49.256Z,1023.51
2019-04-01T09:34:59.065Z,1023.49
2019-04-01T09:36:09.021Z,1023.52
2019-04-01T09:37:18.737Z,1023.47
2019-04-01T09:38:28.469Z,1023.44
2019-04-01T09:39:37.929Z,1023.44
2019-04-01T09:40:47.649Z,1023.45
2019-04-01T09:41:57.366Z,1023.39
2019-04-01T09:43:07.074Z,1023.44
2019-04-01T09:44:19.521Z,1023.44
2019-04-01T09:45:43.648Z,1023.43
2019-04-01T09:46:53.627Z,1023.4
2019-04-01T09:48:03.349Z,1023.39
2019-04-01T09:49:13.317Z,1023.45
2019-04-01T09:50:23.264Z,1023.43
2019-04-01T09:51:47.476Z,1023.38
2019-04-01T09:52:58.185Z,1023.38
2019-04-01T09:54:07.595Z,1023.41
2019-04-01T09:55:16.988Z,1023.43
2019-04-01T09:56:26.644Z,1023.36
2019-04-01T09:57:36.185Z,1023.33
2019-04-01T09:58:46.220Z,1023.33
2019-04-01T09:59:56.080Z,1023.32
2019-04-01T10:01:05.306Z,1023.29
2019-04-01T10:02:14.969Z,1023.25
2019-04-01T10:03:38.537Z,1023.24
2019-04-01T10:04:48.025Z,1023.22
2019-04-01T10:05:57.676Z,1023.19
2019-04-01T10:07:10.469Z,1023.21
2019-04-01T10:08:19.885Z,1023.18
2019-04-01T10:09:47.061Z,1023.17
2019-04-01T10:10:56.709Z,1023.18
2019-04-01T10:12:06.115Z,1023.18
2019-04-01T10:13:15.299Z,1023.17
2019-04-01T10:14:25.362Z,1023.15
2019-04-01T10:15:35.550Z,1023.15
2019-04-01T10:16:44.958Z,1023.09
2019-04-01T10:17:54.210Z,1023.14
2019-04-01T10:19:04.439Z,1023.05
2019-04-01T10:20:14.157Z,1023.11
2019-04-01T10:21:23.841Z,1023.02
2019-04-01T10:22:32.980Z,1023.08
2019-04-01T10:23:42.803Z,1023.08
2019-04-01T10:24:52.482Z,1023.04
2019-04-01T10:26:02.317Z,1023.04
2019-04-01T10:27:12.265Z,1023.08
2019-04-01T10:28:22.193Z,1023.01
2019-04-01T10:29:35.105Z,1023.06
2019-04-01T10:30:44.734Z,1022.98
2019-04-01T10:31:54.462Z,1023.02
2019-04-01T10:33:04.117Z,1022.94
2019-04-01T10:34:13.758Z,1022.93
2019-04-01T10:35:23.454Z,1022.91
2019-04-01T10:36:33.426Z,1022.91
2019-04-01T10:37:43.391Z,1022.87
2019-04-01T10:38:52.854Z,1022.93
2019-04-01T10:40:02.800Z,1022.9
2019-04-01T10:41:12.505Z,1022.92
2019-04-01T10:42:22.514Z,1022.9
2019-04-01T10:43:31.986Z,1022.89
2019-04-01T10:44:41.956Z,1022.85
2019-04-01T10:45:51.495Z,1022.84
2019-04-01T10:47:01.475Z,1022.86
2019-04-01T10:48:11.583Z,1022.8
2019-04-01T10:49:22.002Z,1022.81
2019-04-01T10:50:35.126Z,1022.8
2019-04-01T10:51:45.353Z,1022.77
2019-04-01T10:52:55.577Z,1022.83
2019-04-01T10:54:05.980Z,1022.84
2019-04-01T10:55:15.616Z,1022.76
2019-04-01T10:56:25.805Z,1022.8
2019-04-01T10:57:38.931Z,1022.74
2019-04-01T10:58:54.577Z,1022.73
2019-04-01T11:00:04.377Z,1022.71
2019-04-01T11:01:14.799Z,1022.67
2019-04-01T11:02:24.979Z,1022.7
2019-04-01T11:03:35.145Z,1022.7
2019-04-01T11:04:45.097Z,1022.72
2019-04-01T11:05:54.891Z,1022.65
2019-04-01T11:07:04.819Z,1022.6
2019-04-01T11:08:15.044Z,1022.61
2019-04-01T11:09:37.583Z,1022.58
2019-04-01T11:10:47.726Z,1022.53
2019-04-01T11:11:57.480Z,1022.58
2019-04-01T11:13:06.873Z,1022.53
2019-04-01T11:14:16.204Z,1022.54
2019-04-01T11:15:25.352Z,1022.6
2019-04-01T11:16:35.273Z,1022.59
2019-04-01T11:17:46.618Z,1022.57
2019-04-01T11:18:59.856Z,1022.54
2019-04-01T11:20:10.856Z,1022.47
2019-04-01T11:21:20.818Z,1022.5
2019-04-01T11:22:31.713Z,1022.49
2019-04-01T11:23:41.885Z,1022.5
2019-04-01T11:24:51.604Z,1022.48
2019-04-01T11:26:01.315Z,1022.39
2019-04-01T11:27:11.627Z,1022.48
2019-04-01T11:28:21.614Z,1022.4
2019-04-01T11:29:31.315Z,1022.34
2019-04-01T11:30:41.309Z,1022.39
2019-04-01T11:31:51.138Z,1022.39
2019-04-01T11:33:00.975Z,1022.37
2019-04-01T11:34:13.072Z,1022.35
2019-04-01T11:35:24.617Z,1022.35
2019-04-01T11:36:34.584Z,1022.36
2019-04-01T11:37:46.019Z,1022.32
2019-04-01T11:38:56.218Z,1022.31
2019-04-01T11:40:11.244Z,1022.32
2019-04-01T11:41:21.485Z,1022.31
2019-04-01T11:42:31.734Z,1022.34
2019-04-01T11:43:45.740Z,1022.32
2019-04-01T11:44:55.883Z,1022.34
2019-04-01T11:46:12.314Z,1022.29
2019-04-01T11:47:23.956Z,1022.31
2019-04-01T11:48:33.934Z,1022.29
2019-04-01T11:49:44.161Z,1022.25
2019-04-01T11:50:54.339Z,1022.23
2019-04-01T11:52:04.603Z,1022.24
2019-04-01T11:53:18.396Z,1022.19
2019-04-01T11:54:28.351Z,1022.13
2019-04-01T11:55:38.305Z,1022.04
2019-04-01T11:56:49.132Z,1022.03
2019-04-01T11:57:59.101Z,1022.05
2019-04-01T11:59:09.889Z,1022.04
2019-04-01T12:00:19.867Z,1022.02
2019-04-01T12:01:31.495Z,1022
2019-04-01T12:02:44.207Z,1021.94
2019-04-01T12:03:54.302Z,1022.02
2019-04-01T12:05:04.298Z,1021.98
2019-04-01T12:06:14.296Z,1021.96
2019-04-01T12:07:23.887Z,1021.94
2019-04-01T12:08:33.599Z,1021.91
2019-04-01T12:09:43.563Z,1021.94
2019-04-01T12:10:56.514Z,1021.85
2019-04-01T12:12:06.285Z,1021.84
2019-04-01T12:13:32.415Z,1021.88
2019-04-01T12:14:42.134Z,1021.88
2019-04-01T12:15:51.860Z,1021.87
2019-04-01T12:17:01.824Z,1021.83
2019-04-01T12:18:11.816Z,1021.79
2019-04-01T12:19:21.794Z,1021.79
2019-04-01T12:20:31.750Z,1021.76
2019-04-01T12:21:41.716Z,1021.78
2019-04-01T12:22:51.418Z,1021.76
2019-04-01T12:24:01.390Z,1021.73
2019-04-01T12:25:12.172Z,1021.78
2019-04-01T12:26:22.157Z,1021.77
2019-04-01T12:27:31.865Z,1021.72
2019-04-01T12:28:41.576Z,1021.69
2019-04-01T12:29:51.568Z,1021.68
2019-04-01T12:31:01.567Z,1021.67
2019-04-01T12:32:13.375Z,1021.66
2019-04-01T12:33:26.045Z,1021.61
2019-04-01T12:34:36.290Z,1021.62
2019-04-01T12:35:50.088Z,1021.64
2019-04-01T12:36:59.816Z,1021.56
2019-04-01T12:38:09.334Z,1021.6
2019-04-01T12:39:19.333Z,1021.54
2019-04-01T12:40:29.294Z,1021.53
2019-04-01T12:41:39.095Z,1021.43
2019-04-01T12:42:50.867Z,1021.53
2019-04-01T12:44:00.716Z,1021.5
2019-04-01T12:45:11.706Z,1021.55
2019-04-01T12:46:21.672Z,1021.45
2019-04-01T12:47:31.397Z,1021.45
2019-04-01T12:48:43.804Z,1021.43
2019-04-01T12:49:53.515Z,1021.37
2019-04-01T12:51:03.243Z,1021.36
2019-04-01T12:52:13.209Z,1021.37
2019-04-01T12:53:23.643Z,1021.38
2019-04-01T12:54:33.099Z,1021.46
2019-04-01T12:55:44.950Z,1021.35
2019-04-01T12:56:54.999Z,1021.31
2019-04-01T12:58:04.474Z,1021.37
2019-04-01T12:59:17.910Z,1021.33
2019-04-01T13:00:29.266Z,1021.35
2019-04-01T13:01:39.143Z,1021.3
2019-04-01T13:02:49.955Z,1021.23
2019-04-01T13:03:59.938Z,1021.26
2019-04-01T13:05:11.726Z,1021.26
2019-04-01T13:06:23.207Z,1021.2
2019-04-01T13:07:33.154Z,1021.13
2019-04-01T13:08:42.627Z,1021.11
2019-04-01T13:09:54.137Z,1021.12
2019-04-01T13:11:04.130Z,1021.11
2019-04-01T13:12:14.107Z,1021.05
2019-04-01T13:13:27.898Z,1021.06
2019-04-01T13:14:40.046Z,1021.05
2019-04-01T13:15:50.781Z,1020.97
2019-04-01T13:17:00.759Z,1020.92
2019-04-01T13:18:10.467Z,1020.94
2019-04-01T13:19:21.759Z,1020.85
2019-04-01T13:20:37.877Z,1020.89
2019-04-01T13:21:52.353Z,1020.89
2019-04-01T13:23:02.084Z,1020.83
2019-04-01T13:24:12.050Z,1020.81
2019-04-01T13:25:22.014Z,1020.77
2019-04-01T13:26:31.977Z,1020.72
2019-04-01T13:27:41.675Z,1020.64
2019-04-01T13:28:51.390Z,1020.62
2019-04-01T13:30:02.417Z,1020.62
2019-04-01T13:31:12.394Z,1020.63
2019-04-01T13:32:22.380Z,1020.6
2019-04-01T13:33:32.357Z,1020.58
2019-04-01T13:34:42.086Z,1020.61
2019-04-01T13:35:52.862Z,1020.57
2019-04-01T13:37:02.891Z,1020.52
2019-04-01T13:38:12.603Z,1020.48
2019-04-01T13:39:22.879Z,1020.47
2019-04-01T13:40:32.952Z,1020.42
2019-04-01T13:41:44.406Z,1020.43
2019-04-01T13:42:58.787Z,1020.4
2019-04-01T13:44:13.277Z,1020.44
2019-04-01T13:45:36.727Z,1020.46
2019-04-01T13:46:48.476Z,1020.49
2019-04-01T13:48:01.215Z,1020.47
2019-04-01T13:49:11.204Z,1020.4
2019-04-01T13:50:20.932Z,1020.31
2019-04-01T13:51:30.638Z,1020.32
2019-04-01T13:52:44.063Z,1020.39
2019-04-01T13:54:07.899Z,1020.32
2019-04-01T13:55:18.971Z,1020.34
2019-04-01T13:56:28.936Z,1020.27
2019-04-01T13:57:38.644Z,1020.32
2019-04-01T13:58:49.607Z,1020.29
2019-04-01T13:59:59.337Z,1020.24
2019-04-01T14:01:09.329Z,1020.27
2019-04-01T14:02:19.045Z,1020.26
2019-04-01T14:03:33.653Z,1020.21
2019-04-01T14:04:43.627Z,1020.25
2019-04-01T14:05:53.677Z,1020.19
2019-04-01T14:07:04.091Z,1020.16
2019-04-01T14:08:14.064Z,1020.13
2019-04-01T14:09:25.176Z,1020.08
2019-04-01T14:10:40.485Z,1020.09
2019-04-01T14:11:50.578Z,1020.05
2019-04-01T14:13:00.401Z,1020.03
2019-04-01T14:14:10.362Z,1019.97